Time;durP1;ratioP1;P1;durP2;ratioP2;P2;SDS_P1;SDS_P2;PMS_P1;PMS_P2;Temp;Humidity;BMP_temperature;BMP_pressure;BME280_temperature;BME280_humidity;BME280_pressure;Samples;Min_cycle;Max_cycle;Signal;HPM_P1;HPM_P2
2023/11/23 00:00:20;;;;;;;13.60;7.40;;;;;;;;;;5001076;28;20026;-89
2023/11/23 00:03:06;;;;;;;12.77;7.60;;;;;;;;;;5001455;28;20037;-89
2023/11/23 00:05:51;;;;;;;11.13;6.53;;;;;;;;;;5003652;28;20037;-89
2023/11/23 00:08:36;;;;;;;13.13;7.35;;;;;;;;;;4994422;28;20105;-88
2023/11/23 00:11:23;;;;;;;10.73;7.13;;;;;;;;;;5000609;28;20037;-87
2023/11/23 00:14:08;;;;;;;14.30;7.93;;;;;;;;;;4999949;28;20751;-89
2023/11/23 00:16:54;;;;;;;12.55;7.75;;;;;;;;;;4999348;28;20071;-87
2023/11/23 00:19:40;;;;;;;12.98;7.85;;;;;;;;;;4981454;28;20449;-89
2023/11/23 00:22:28;;;;;;;12.27;8.18;;;;;;;;;;4981751;28;20023;-90
2023/11/23 00:25:14;;;;;;;15.70;7.57;;;;;;;;;;5038871;28;20026;-88
2023/11/23 00:27:58;;;;;;;15.90;9.05;;;;;;;;;;5018076;28;20028;-87
2023/11/23 00:30:43;;;;;;;13.43;7.68;;;;;;;;;;5014542;28;20090;-89
2023/11/23 00:33:29;;;;;;;15.93;8.18;;;;;;;;;;5017995;28;20034;-90
2023/11/23 00:36:14;;;;;;;12.30;6.88;;;;;;;;;;5003296;28;20021;-89
2023/11/23 00:38:59;;;;;;;14.88;8.77;;;;;;;;;;4996493;28;20076;-88
2023/11/23 00:41:45;;;;;;;13.55;7.63;;;;;;;;;;4995875;28;20108;-89
2023/11/23 00:44:31;;;;;;;13.18;7.72;;;;;;;;;;4992686;28;20455;-88
2023/11/23 00:47:17;;;;;;;18.13;8.90;;;;;;;;;;4986316;28;20037;-89
2023/11/23 00:50:04;;;;;;;16.42;9.02;;;;;;;;;;4988039;28;20018;-88
2023/11/23 00:52:49;;;;;;;12.73;7.85;;;;;;;;;;4992359;28;20022;-89
2023/11/23 00:55:36;;;;;;;12.73;7.78;;;;;;;;;;4990982;28;20028;-88
2023/11/23 00:58:21;;;;;;;15.80;8.82;;;;;;;;;;4983461;28;20034;-89
2023/11/23 01:01:07;;;;;;;13.27;8.57;;;;;;;;;;4967679;28;20026;-89
2023/11/23 01:03:52;;;;;;;14.40;9.10;;;;;;;;;;4988131;28;20084;-90
2023/11/23 01:06:37;;;;;;;15.63;8.23;;;;;;;;;;4990609;28;20091;-88
2023/11/23 01:09:23;;;;;;;14.05;8.55;;;;;;;;;;4989973;28;20112;-88
2023/11/23 01:12:08;;;;;;;15.35;8.45;;;;;;;;;;4991401;28;20026;-89
2023/11/23 01:14:53;;;;;;;14.30;8.50;;;;;;;;;;4989439;28;20034;-87
2023/11/23 01:17:39;;;;;;;15.43;8.45;;;;;;;;;;4978614;28;20041;-87
2023/11/23 01:20:24;;;;;;;13.50;8.48;;;;;;;;;;4973039;28;20088;-88
2023/11/23 01:23:11;;;;;;;14.65;9.15;;;;;;;;;;4973987;28;20052;-89
2023/11/23 01:25:56;;;;;;;12.98;8.52;;;;;;;;;;4987268;28;20400;-89
2023/11/23 01:28:42;;;;;;;13.35;7.95;;;;;;;;;;4987138;28;20033;-89
2023/11/23 01:31:27;;;;;;;14.30;8.90;;;;;;;;;;5002963;28;20053;-90
2023/11/23 01:34:12;;;;;;;15.90;9.15;;;;;;;;;;4980109;28;20038;-90
2023/11/23 01:36:57;;;;;;;15.25;9.35;;;;;;;;;;4982511;28;20114;-87
2023/11/23 01:39:43;;;;;;;16.90;10.20;;;;;;;;;;4971783;28;20025;-89
2023/11/23 01:42:28;;;;;;;14.27;9.00;;;;;;;;;;4986238;28;20053;-90
2023/11/23 01:45:14;;;;;;;14.38;8.70;;;;;;;;;;5003771;28;20121;-91
2023/11/23 01:47:59;;;;;;;14.35;8.50;;;;;;;;;;5007346;28;20028;-89
2023/11/23 01:50:45;;;;;;;14.70;8.35;;;;;;;;;;4996371;28;20036;-89
2023/11/23 01:53:30;;;;;;;15.88;10.40;;;;;;;;;;4992521;28;20034;-89
2023/11/23 01:56:16;;;;;;;16.02;8.48;;;;;;;;;;4972325;28;20036;-89
2023/11/23 01:59:03;;;;;;;13.02;7.78;;;;;;;;;;4971297;28;20233;-90
2023/11/23 02:01:49;;;;;;;16.27;9.07;;;;;;;;;;4969663;28;20026;-88
2023/11/23 02:04:34;;;;;;;19.42;8.75;;;;;;;;;;4966311;28;20443;-88
2023/11/23 02:07:19;;;;;;;15.18;9.52;;;;;;;;;;4977930;28;20056;-89
2023/11/23 02:10:05;;;;;;;14.65;9.23;;;;;;;;;;4985675;28;20034;-87
2023/11/23 02:12:51;;;;;;;16.10;9.55;;;;;;;;;;4987393;28;20108;-89
2023/11/23 02:15:36;;;;;;;14.50;9.02;;;;;;;;;;4985734;28;20030;-89
2023/11/23 02:18:21;;;;;;;14.18;8.68;;;;;;;;;;4983977;28;20030;-88
2023/11/23 02:21:07;;;;;;;15.13;9.65;;;;;;;;;;4970489;28;20037;-88
2023/11/23 02:23:52;;;;;;;17.85;9.43;;;;;;;;;;4972668;28;20108;-88
2023/11/23 02:26:37;;;;;;;16.77;9.15;;;;;;;;;;4984120;28;20501;-89
2023/11/23 02:29:22;;;;;;;17.20;9.60;;;;;;;;;;4974364;28;20433;-89
2023/11/23 02:32:26;;;;;;;15.40;9.07;;;;;;;;;;4983309;28;20057;-89
2023/11/23 02:35:14;;;;;;;13.02;8.02;;;;;;;;;;4986390;28;20025;-88
2023/11/23 02:38:00;;;;;;;17.40;8.70;;;;;;;;;;4982793;28;20037;-88
2023/11/23 02:40:45;;;;;;;14.02;8.52;;;;;;;;;;4979206;28;20044;-88
2023/11/23 02:43:30;;;;;;;14.13;7.80;;;;;;;;;;4990284;28;20077;-89
2023/11/23 02:46:15;;;;;;;14.88;9.07;;;;;;;;;;4971553;28;20041;-88
2023/11/23 02:49:01;;;;;;;13.70;8.38;;;;;;;;;;4973876;28;20034;-88
2023/11/23 02:51:46;;;;;;;15.27;9.15;;;;;;;;;;4972127;28;20034;-88
2023/11/23 02:54:31;;;;;;;18.45;9.18;;;;;;;;;;4974534;28;20038;-89
2023/11/23 02:57:16;;;;;;;15.15;8.43;;;;;;;;;;4980132;28;20022;-88
2023/11/23 03:00:03;;;;;;;14.82;7.97;;;;;;;;;;4976565;28;20034;-89
2023/11/23 03:02:52;;;;;;;13.80;8.80;;;;;;;;;;4974416;28;20026;-89
2023/11/23 03:05:38;;;;;;;12.95;8.70;;;;;;;;;;4974774;28;20388;-88
2023/11/23 03:08:24;;;;;;;14.50;8.60;;;;;;;;;;4986000;28;20038;-89
2023/11/23 03:11:20;;;;;;;13.32;8.32;;;;;;;;;;4984148;28;20061;-89
2023/11/23 03:14:05;;;;;;;14.88;8.15;;;;;;;;;;4983688;28;20015;-90
2023/11/23 03:16:51;;;;;;;13.95;8.23;;;;;;;;;;4969291;28;20057;-88
2023/11/23 03:19:36;;;;;;;17.67;9.32;;;;;;;;;;4977827;28;20026;-88
2023/11/23 03:22:22;;;;;;;15.68;8.52;;;;;;;;;;4991281;28;20040;-87
2023/11/23 03:25:09;;;;;;;14.07;8.50;;;;;;;;;;4976465;28;20038;-88
2023/11/23 03:27:54;;;;;;;16.63;8.65;;;;;;;;;;4980798;28;20651;-88
2023/11/23 03:30:39;;;;;;;14.63;8.68;;;;;;;;;;4996063;28;20444;-89
2023/11/23 03:33:24;;;;;;;14.52;8.52;;;;;;;;;;4988562;28;20030;-88
2023/11/23 03:36:10;;;;;;;16.08;8.57;;;;;;;;;;4979896;28;20109;-89
2023/11/23 03:38:55;;;;;;;15.50;8.55;;;;;;;;;;4990723;28;20022;-89
2023/11/23 03:41:40;;;;;;;13.45;8.55;;;;;;;;;;5007369;28;20026;-88
2023/11/23 03:44:25;;;;;;;15.60;8.68;;;;;;;;;;4992529;28;20492;-89
2023/11/23 03:47:10;;;;;;;14.23;8.45;;;;;;;;;;4986102;28;20492;-87
2023/11/23 03:49:56;;;;;;;13.90;9.13;;;;;;;;;;4974940;28;20129;-87
2023/11/23 03:52:41;;;;;;;14.77;8.40;;;;;;;;;;4985184;28;20392;-87
2023/11/23 03:55:26;;;;;;;14.48;9.30;;;;;;;;;;4982254;28;20665;-88
2023/11/23 03:58:11;;;;;;;12.48;7.68;;;;;;;;;;4974954;28;20093;-88
2023/11/23 04:00:56;;;;;;;14.63;8.60;;;;;;;;;;4972996;28;20436;-88
2023/11/23 04:03:45;;;;;;;13.00;7.35;;;;;;;;;;4986227;28;20476;-88
2023/11/23 04:06:30;;;;;;;16.48;9.77;;;;;;;;;;4974216;28;20041;-88
2023/11/23 04:09:18;;;;;;;13.73;8.27;;;;;;;;;;4976107;28;20112;-89
2023/11/23 04:12:03;;;;;;;14.77;8.80;;;;;;;;;;4988178;28;20687;-89
2023/11/23 04:14:48;;;;;;;19.13;8.55;;;;;;;;;;4977382;28;20084;-90
2023/11/23 04:17:33;;;;;;;15.70;9.38;;;;;;;;;;4991670;28;20022;-88
2023/11/23 04:20:19;;;;;;;12.68;7.40;;;;;;;;;;4991448;28;20029;-90
2023/11/23 04:23:04;;;;;;;14.23;7.95;;;;;;;;;;4992048;28;20053;-88
2023/11/23 04:25:50;;;;;;;13.02;7.75;;;;;;;;;;4981098;28;20022;-90
2023/11/23 04:28:35;;;;;;;14.13;8.60;;;;;;;;;;4987166;28;20028;-88
2023/11/23 04:31:21;;;;;;;15.27;8.77;;;;;;;;;;4967519;28;20042;-87
2023/11/23 04:34:06;;;;;;;14.68;8.10;;;;;;;;;;4956496;28;20089;-89
2023/11/23 04:36:51;;;;;;;14.98;9.07;;;;;;;;;;4965450;28;20041;-88
2023/11/23 04:39:36;;;;;;;16.08;8.68;;;;;;;;;;4962766;28;20027;-88
2023/11/23 04:42:22;;;;;;;16.35;9.02;;;;;;;;;;4950247;28;20106;-89
2023/11/23 04:45:07;;;;;;;15.85;9.10;;;;;;;;;;4969277;28;20033;-90
2023/11/23 04:47:52;;;;;;;15.30;8.52;;;;;;;;;;4972396;28;20066;-88
2023/11/23 04:50:38;;;;;;;14.30;7.82;;;;;;;;;;4966836;28;20037;-88
2023/11/23 04:53:23;;;;;;;16.13;9.63;;;;;;;;;;4955374;28;20026;-87
2023/11/23 04:56:08;;;;;;;13.95;7.65;;;;;;;;;;4961381;28;20081;-88
2023/11/23 04:58:54;;;;;;;14.00;8.93;;;;;;;;;;4967107;28;20076;-88
2023/11/23 05:01:39;;;;;;;16.23;8.57;;;;;;;;;;4980749;28;20058;-87
2023/11/23 05:04:24;;;;;;;13.98;8.32;;;;;;;;;;4957334;28;20038;-87
2023/11/23 05:07:10;;;;;;;16.42;8.70;;;;;;;;;;4966703;28;20081;-87
2023/11/23 05:09:55;;;;;;;15.20;8.60;;;;;;;;;;4957422;28;20034;-88
2023/11/23 05:12:40;;;;;;;14.85;8.48;;;;;;;;;;4961979;28;20466;-87
2023/11/23 05:15:25;;;;;;;14.77;8.40;;;;;;;;;;4962186;28;20049;-88
2023/11/23 05:18:12;;;;;;;20.10;9.35;;;;;;;;;;4965805;28;20019;-89
2023/11/23 05:20:57;;;;;;;13.18;7.78;;;;;;;;;;4958946;28;20046;-89
2023/11/23 05:23:42;;;;;;;14.88;8.27;;;;;;;;;;4953112;28;20074;-88
2023/11/23 05:26:27;;;;;;;14.20;8.30;;;;;;;;;;4982881;28;20044;-87
2023/11/23 05:29:13;;;;;;;12.15;6.82;;;;;;;;;;4966338;28;20402;-88
2023/11/23 05:31:58;;;;;;;16.13;8.85;;;;;;;;;;4984979;28;20025;-89
2023/11/23 05:34:43;;;;;;;15.27;8.95;;;;;;;;;;4979349;28;20030;-89
2023/11/23 05:37:28;;;;;;;16.52;7.93;;;;;;;;;;4991247;28;20079;-89
2023/11/23 05:40:16;;;;;;;16.00;8.57;;;;;;;;;;4990079;28;20036;-89
2023/11/23 05:43:01;;;;;;;13.40;7.82;;;;;;;;;;4974326;28;20030;-89
2023/11/23 05:45:46;;;;;;;16.38;8.63;;;;;;;;;;4989446;28;20400;-85
2023/11/23 05:48:32;;;;;;;20.30;8.65;;;;;;;;;;4987204;28;20493;-89
2023/11/23 05:51:17;;;;;;;13.82;7.68;;;;;;;;;;4988835;28;20532;-88
2023/11/23 05:54:02;;;;;;;15.90;8.27;;;;;;;;;;4988104;28;20021;-89
2023/11/23 05:56:48;;;;;;;16.63;8.00;;;;;;;;;;4990092;28;20060;-89
2023/11/23 05:59:33;;;;;;;14.27;7.53;;;;;;;;;;5005097;28;20030;-90
2023/11/23 06:02:18;;;;;;;12.75;7.95;;;;;;;;;;4996446;28;20468;-88
2023/11/23 06:05:04;;;;;;;12.15;7.10;;;;;;;;;;4988787;28;20022;-88
2023/11/23 06:07:50;;;;;;;14.23;7.15;;;;;;;;;;4994303;28;20034;-87
2023/11/23 06:10:35;;;;;;;12.75;6.97;;;;;;;;;;4972812;28;20038;-88
2023/11/23 06:13:20;;;;;;;15.13;8.73;;;;;;;;;;4975931;28;20477;-87
2023/11/23 06:16:06;;;;;;;15.60;7.43;;;;;;;;;;4988682;28;20441;-86
2023/11/23 06:18:52;;;;;;;13.60;7.93;;;;;;;;;;4971602;28;20058;-91
2023/11/23 06:21:37;;;;;;;17.00;7.75;;;;;;;;;;4974017;28;20134;-91
2023/11/23 06:24:23;;;;;;;16.02;8.40;;;;;;;;;;4970744;28;20014;-90
2023/11/23 06:27:10;;;;;;;14.57;7.03;;;;;;;;;;4975329;28;20022;-91
2023/11/23 06:29:55;;;;;;;13.93;7.28;;;;;;;;;;4975058;28;20182;-91
2023/11/23 06:32:40;;;;;;;16.38;8.23;;;;;;;;;;4989580;28;20030;-91
2023/11/23 06:35:26;;;;;;;14.57;8.02;;;;;;;;;;5005503;28;20080;-92
2023/11/23 06:38:11;;;;;;;11.85;6.55;;;;;;;;;;5004624;28;20021;-87
2023/11/23 06:40:56;;;;;;;11.95;6.55;;;;;;;;;;4993856;28;20029;-84
2023/11/23 06:43:42;;;;;;;13.85;7.75;;;;;;;;;;4996479;28;20018;-85
2023/11/23 06:46:28;;;;;;;13.23;6.63;;;;;;;;;;4983842;28;20049;-89
2023/11/23 06:49:19;;;;;;;12.55;7.05;;;;;;;;;;4993937;28;20069;-89
2023/11/23 06:52:07;;;;;;;14.43;7.20;;;;;;;;;;5002505;28;20022;-89
2023/11/23 06:54:52;;;;;;;13.48;6.47;;;;;;;;;;5000629;28;20512;-88
2023/11/23 06:57:46;;;;;;;12.90;7.30;;;;;;;;;;4993293;28;20389;-87
2023/11/23 07:00:31;;;;;;;13.55;7.38;;;;;;;;;;5002164;28;20033;-85
2023/11/23 07:03:16;;;;;;;13.50;6.47;;;;;;;;;;4991978;28;20583;-86
2023/11/23 07:06:02;;;;;;;13.13;6.47;;;;;;;;;;4992796;28;20010;-86
2023/11/23 07:08:47;;;;;;;10.75;6.15;;;;;;;;;;4992018;28;20038;-87
2023/11/23 07:11:36;;;;;;;10.48;5.72;;;;;;;;;;4994772;28;20010;-87
2023/11/23 07:14:21;;;;;;;13.55;7.25;;;;;;;;;;4983629;28;20360;-86
2023/11/23 07:17:06;;;;;;;11.00;6.30;;;;;;;;;;4994824;28;20018;-86
2023/11/23 07:19:52;;;;;;;13.95;6.95;;;;;;;;;;4995559;28;20033;-87
2023/11/23 07:22:38;;;;;;;11.52;6.95;;;;;;;;;;4976331;28;20335;-86
2023/11/23 07:25:23;;;;;;;10.60;5.38;;;;;;;;;;5001941;28;20082;-87
2023/11/23 07:28:11;;;;;;;11.77;6.05;;;;;;;;;;4993801;28;20122;-85
2023/11/23 07:30:57;;;;;;;10.93;6.18;;;;;;;;;;4978376;28;20073;-86
2023/11/23 07:33:43;;;;;;;11.75;7.07;;;;;;;;;;4973234;28;20023;-85
2023/11/23 07:36:30;;;;;;;13.15;6.40;;;;;;;;;;4980025;28;20388;-85
2023/11/23 07:39:16;;;;;;;13.90;6.25;;;;;;;;;;4981464;28;20029;-86
2023/11/23 07:42:03;;;;;;;10.10;5.60;;;;;;;;;;4971508;28;20053;-86
2023/11/23 07:44:48;;;;;;;12.65;6.15;;;;;;;;;;4979172;28;20021;-85
2023/11/23 07:47:34;;;;;;;11.90;6.00;;;;;;;;;;4979354;28;20029;-84
2023/11/23 07:50:20;;;;;;;11.40;6.63;;;;;;;;;;4973796;28;20054;-84
2023/11/23 07:53:05;;;;;;;10.88;5.90;;;;;;;;;;4960332;28;20034;-83
2023/11/23 07:55:50;;;;;;;10.52;5.95;;;;;;;;;;4973120;28;20038;-83
2023/11/23 07:58:35;;;;;;;13.55;5.45;;;;;;;;;;4979628;28;20037;-87
2023/11/23 08:01:20;;;;;;;10.77;5.93;;;;;;;;;;4974489;28;20675;-85
2023/11/23 08:04:06;;;;;;;10.80;6.05;;;;;;;;;;4975156;28;20035;-85
2023/11/23 08:06:51;;;;;;;10.43;5.60;;;;;;;;;;4973859;28;20037;-82
2023/11/23 08:09:36;;;;;;;9.65;5.15;;;;;;;;;;4968546;28;20026;-83
2023/11/23 08:12:22;;;;;;;10.93;5.90;;;;;;;;;;4968193;28;20049;-88
2023/11/23 08:15:08;;;;;;;11.32;5.10;;;;;;;;;;4983173;28;20048;-86
2023/11/23 08:17:53;;;;;;;10.38;5.43;;;;;;;;;;4978266;28;20030;-86
2023/11/23 08:20:39;;;;;;;10.73;4.90;;;;;;;;;;4976292;28;20733;-84
2023/11/23 08:23:25;;;;;;;8.57;4.63;;;;;;;;;;4979849;28;20030;-86
2023/11/23 08:26:11;;;;;;;8.82;4.85;;;;;;;;;;4981135;28;20084;-86
2023/11/23 08:28:56;;;;;;;8.00;4.30;;;;;;;;;;4983726;28;20037;-86
2023/11/23 08:31:43;;;;;;;10.13;4.53;;;;;;;;;;4966923;28;20088;-85
2023/11/23 08:34:29;;;;;;;9.73;5.55;;;;;;;;;;4963751;28;20022;-86
2023/11/23 08:37:13;;;;;;;9.65;4.45;;;;;;;;;;4996286;28;20081;-88
2023/11/23 08:39:58;;;;;;;10.63;4.97;;;;;;;;;;4986240;28;20030;-85
2023/11/23 08:42:43;;;;;;;9.90;3.95;;;;;;;;;;4987510;28;20014;-86
2023/11/23 08:45:29;;;;;;;8.02;4.97;;;;;;;;;;4987125;28;20031;-87
2023/11/23 08:48:15;;;;;;;10.68;4.38;;;;;;;;;;4987854;28;20033;-88
2023/11/23 08:51:01;;;;;;;9.20;3.97;;;;;;;;;;4967150;28;20030;-85
2023/11/23 08:53:46;;;;;;;9.15;4.72;;;;;;;;;;4969595;28;20044;-84
2023/11/23 08:56:32;;;;;;;10.93;4.53;;;;;;;;;;4969650;28;20354;-92
2023/11/23 08:59:20;;;;;;;14.63;4.45;;;;;;;;;;4962244;28;20117;-86
2023/11/23 09:02:07;;;;;;;9.70;4.15;;;;;;;;;;4962090;28;20133;-86
2023/11/23 09:04:52;;;;;;;9.68;4.38;;;;;;;;;;4959152;28;20031;-86
2023/11/23 09:07:38;;;;;;;7.00;3.83;;;;;;;;;;4965002;28;20097;-87
2023/11/23 09:10:24;;;;;;;7.88;4.00;;;;;;;;;;4978647;28;20433;-87
2023/11/23 09:13:10;;;;;;;7.57;3.95;;;;;;;;;;4959319;28;20034;-87
2023/11/23 09:15:55;;;;;;;7.97;4.05;;;;;;;;;;4954676;28;20789;-87
2023/11/23 09:18:43;;;;;;;8.25;4.05;;;;;;;;;;4980615;28;21801;-87
2023/11/23 09:21:28;;;;;;;7.78;3.50;;;;;;;;;;4964436;28;20030;-90
2023/11/23 09:24:14;;;;;;;7.25;3.90;;;;;;;;;;4949827;28;20065;-85
2023/11/23 09:26:59;;;;;;;7.20;3.53;;;;;;;;;;4964427;28;20374;-88
2023/11/23 09:29:45;;;;;;;6.55;3.08;;;;;;;;;;4962963;28;20464;-86
2023/11/23 09:32:31;;;;;;;5.38;3.03;;;;;;;;;;4987157;28;20084;-84
2023/11/23 09:35:16;;;;;;;5.60;3.22;;;;;;;;;;4987089;28;20084;-85
2023/11/23 09:38:01;;;;;;;7.38;3.58;;;;;;;;;;4980648;28;20027;-85
2023/11/23 09:40:47;;;;;;;6.03;3.25;;;;;;;;;;4968524;28;20022;-85
2023/11/23 09:43:32;;;;;;;5.93;3.53;;;;;;;;;;4981871;28;20100;-83
2023/11/23 09:46:19;;;;;;;6.47;3.30;;;;;;;;;;4980911;28;20037;-88
2023/11/23 09:49:07;;;;;;;8.30;3.03;;;;;;;;;;4992147;28;20033;-86
2023/11/23 09:51:55;;;;;;;7.63;2.70;;;;;;;;;;4977516;28;20043;-82
2023/11/23 09:54:40;;;;;;;5.95;3.03;;;;;;;;;;4997489;28;20488;-86
2023/11/23 09:57:26;;;;;;;6.63;3.63;;;;;;;;;;4981663;28;20049;-82
2023/11/23 10:00:14;;;;;;;4.13;2.58;;;;;;;;;;4994939;28;20465;-85
2023/11/23 10:02:59;;;;;;;5.20;2.75;;;;;;;;;;4986363;28;20028;-88
2023/11/23 10:05:45;;;;;;;5.80;2.35;;;;;;;;;;4985623;28;20032;-86
2023/11/23 10:08:30;;;;;;;6.00;2.92;;;;;;;;;;4990824;28;20484;-85
2023/11/23 10:11:15;;;;;;;6.38;2.88;;;;;;;;;;4982911;28;20037;-86
2023/11/23 10:14:00;;;;;;;6.70;2.65;;;;;;;;;;4977047;28;20030;-87
2023/11/23 10:16:46;;;;;;;3.85;2.40;;;;;;;;;;4983214;28;20034;-88
2023/11/23 10:19:31;;;;;;;4.30;2.80;;;;;;;;;;4985314;28;20029;-87
2023/11/23 10:22:17;;;;;;;8.27;2.65;;;;;;;;;;4981864;28;20408;-85
2023/11/23 10:25:02;;;;;;;5.82;3.05;;;;;;;;;;4981705;28;20038;-87
2023/11/23 10:27:48;;;;;;;4.63;2.60;;;;;;;;;;4976806;28;20029;-88
2023/11/23 10:30:36;;;;;;;7.78;3.53;;;;;;;;;;4992614;28;20131;-89
2023/11/23 10:33:25;;;;;;;5.75;2.85;;;;;;;;;;4998503;28;20219;-88
2023/11/23 10:36:11;;;;;;;9.55;2.78;;;;;;;;;;4996203;28;20014;-86
2023/11/23 10:38:59;;;;;;;5.65;2.30;;;;;;;;;;4992960;28;20127;-88
2023/11/23 10:41:46;;;;;;;4.78;2.75;;;;;;;;;;5005542;28;20381;-87
2023/11/23 10:44:33;;;;;;;5.05;2.75;;;;;;;;;;4995454;28;20038;-87
2023/11/23 10:47:18;;;;;;;5.80;3.05;;;;;;;;;;4995130;28;20033;-88
2023/11/23 10:50:05;;;;;;;4.57;2.72;;;;;;;;;;4985084;28;20041;-87
2023/11/23 10:52:53;;;;;;;6.97;2.92;;;;;;;;;;4992741;28;20425;-88
2023/11/23 10:55:38;;;;;;;4.38;2.80;;;;;;;;;;5004204;28;20038;-88
2023/11/23 10:58:24;;;;;;;4.05;2.47;;;;;;;;;;4990919;28;20038;-89
2023/11/23 11:01:10;;;;;;;4.05;2.40;;;;;;;;;;4991378;28;20164;-90
2023/11/23 11:03:56;;;;;;;7.80;3.22;;;;;;;;;;4997065;28;20030;-90
2023/11/23 11:06:41;;;;;;;4.63;2.58;;;;;;;;;;4987186;28;20037;-88
2023/11/23 11:09:27;;;;;;;5.90;2.83;;;;;;;;;;4983327;28;20026;-85
2023/11/23 11:12:13;;;;;;;6.75;3.08;;;;;;;;;;5014817;28;20033;-87
2023/11/23 11:15:02;;;;;;;5.35;2.70;;;;;;;;;;5002232;28;20164;-87
2023/11/23 11:17:51;;;;;;;;;;;;;;;;;;4988278;28;20037;-89
2023/11/23 11:20:41;;;;;;;5.03;2.95;;;;;;;;;;5006092;28;20112;-89
2023/11/23 11:23:26;;;;;;;;;;;;;;;;;;5014468;28;20033;-91
2023/11/23 11:26:24;;;;;;;5.32;2.60;;;;;;;;;;5026735;28;19969;-94
2023/11/23 11:29:10;;;;;;;5.50;3.15;;;;;;;;;;5009875;28;20022;-94
2023/11/23 11:31:57;;;;;;;3.83;2.78;;;;;;;;;;4992282;28;20145;-92
2023/11/23 11:34:42;;;;;;;5.78;3.45;;;;;;;;;;4995548;28;20026;-93
2023/11/23 11:37:29;;;;;;;9.13;2.50;;;;;;;;;;4981093;28;20018;-92
2023/11/23 11:40:15;;;;;;;4.82;2.80;;;;;;;;;;4979000;28;20507;-93
2023/11/23 11:43:02;;;;;;;5.80;2.90;;;;;;;;;;4988306;28;20038;-93
2023/11/23 11:45:47;;;;;;;6.95;3.03;;;;;;;;;;5022143;28;20068;-93
2023/11/23 11:48:32;;;;;;;6.15;2.78;;;;;;;;;;5008197;28;20030;-94
2023/11/23 11:51:18;;;;;;;3.95;2.45;;;;;;;;;;5002905;28;20036;-93
2023/11/23 11:54:05;;;;;;;5.32;2.65;;;;;;;;;;5000312;28;20076;-93
2023/11/23 11:56:56;;;;;;;7.00;2.60;;;;;;;;;;5001138;28;20022;-93
2023/11/23 11:59:44;;;;;;;4.32;2.30;;;;;;;;;;5002165;28;20026;-92
2023/11/23 12:02:31;;;;;;;6.78;2.60;;;;;;;;;;5005095;28;20021;-93
2023/11/23 12:05:17;;;;;;;4.25;2.67;;;;;;;;;;5016103;28;20026;-95
2023/11/23 12:08:02;;;;;;;3.47;2.30;;;;;;;;;;4999681;28;20026;-95
2023/11/23 18:20:23;;;;;;;3.75;1.30;;;;;;;;;;5042159;28;20032;-85
2023/11/23 18:23:08;;;;;;;3.30;1.48;;;;;;;;;;5033942;28;20495;-86
2023/11/23 18:25:55;;;;;;;1.85;1.30;;;;;;;;;;5045297;28;20021;-86
2023/11/23 18:28:40;;;;;;;2.83;1.70;;;;;;;;;;5046778;28;20024;-87
2023/11/23 18:31:25;;;;;;;2.28;1.52;;;;;;;;;;5045527;28;20103;-87
2023/11/23 18:34:11;;;;;;;2.70;1.70;;;;;;;;;;5043363;28;20032;-85
2023/11/23 18:36:56;;;;;;;1.85;1.40;;;;;;;;;;5047543;28;20111;-88
2023/11/23 18:39:42;;;;;;;2.95;1.30;;;;;;;;;;5052035;28;20028;-86
2023/11/23 18:42:28;;;;;;;3.67;2.35;;;;;;;;;;5048624;28;20025;-87
2023/11/23 18:45:14;;;;;;;6.03;2.65;;;;;;;;;;5036783;28;20043;-88
2023/11/23 18:48:00;;;;;;;3.88;1.90;;;;;;;;;;5048554;28;20032;-88
2023/11/23 18:50:45;;;;;;;4.00;1.80;;;;;;;;;;5049085;28;20025;-85
2023/11/23 18:53:30;;;;;;;3.92;2.17;;;;;;;;;;5044515;28;20032;-86
2023/11/23 18:56:15;;;;;;;2.97;1.55;;;;;;;;;;5034242;28;20048;-87
2023/11/23 18:59:01;;;;;;;2.53;1.70;;;;;;;;;;5041673;28;20114;-88
2023/11/23 19:01:53;;;;;;;2.45;1.77;;;;;;;;;;5050092;28;20027;-92
2023/11/23 19:04:53;;;;;;;3.42;1.65;;;;;;;;;;5052009;28;20114;-87
2023/11/23 19:07:39;;;;;;;2.65;1.40;;;;;;;;;;5060569;28;20411;-89
2023/11/23 19:10:24;;;;;;;5.85;2.30;;;;;;;;;;5043386;28;20027;-88
2023/11/23 19:13:09;;;;;;;2.90;1.83;;;;;;;;;;5056939;28;20043;-89
2023/11/23 19:15:55;;;;;;;3.85;1.85;;;;;;;;;;5039819;28;20029;-88
2023/11/23 19:18:41;;;;;;;4.13;2.00;;;;;;;;;;5030744;28;20116;-87
2023/11/23 19:21:29;;;;;;;7.07;2.53;;;;;;;;;;5016535;28;20094;-88
2023/11/23 19:24:53;;;;;;;4.85;2.28;;;;;;;;;;5022728;28;20025;-91
2023/11/23 19:27:58;;;;;;;5.40;2.10;;;;;;;;;;5025841;28;20036;-90
2023/11/23 19:37:51;;;;;;;3.75;1.90;;;;;;;;;;5040977;28;20083;-91
2023/11/23 19:40:40;;;;;;;5.78;2.10;;;;;;;;;;5010213;28;20017;-91
2023/11/23 19:43:26;;;;;;;4.07;2.05;;;;;;;;;;5019973;28;20051;-90
2023/11/23 19:53:01;;;;;;;3.03;1.67;;;;;;;;;;5045852;28;20032;-92
2023/11/23 21:50:10;;;;;;;;;;;;;;;;;;;;;
2023/11/23 21:52:58;;;;;;;1.55;1.00;;;;;;;;;;5034868;28;20036;-87
2023/11/23 21:55:50;;;;;;;3.05;1.90;;;;;;;;;;5045445;28;20032;-90
